Time;durP1;ratioP1;P1;durP2;ratioP2;P2;SDS_P1;SDS_P2;PMS_P1;PMS_P2;Temp;Humidity;BMP_temperature;BMP_pressure;BME280_temperature;BME280_humidity;BME280_pressure;Samples;Min_cycle;Max_cycle;Signal;HPM_P1;HPM_P2
2023/09/07 00:00:48;;;;;;;3.53;3.20;;;22.60;71.20;;;;;;4979410;28;20108;-54
2023/09/07 00:03:14;;;;;;;4.72;3.30;;;22.60;71.30;;;;;;4984878;28;20575;-55
2023/09/07 00:05:40;;;;;;;4.65;3.50;;;22.50;71.20;;;;;;4982004;28;20050;-56
2023/09/07 00:08:06;;;;;;;5.10;3.88;;;22.50;71.10;;;;;;4980557;28;20562;-54
2023/09/07 00:10:35;;;;;;;5.10;4.00;;;22.60;71.20;;;;;;4979018;28;20117;-55
2023/09/07 00:13:02;;;;;;;4.18;3.58;;;22.60;71.20;;;;;;4979811;28;20042;-57
2023/09/07 00:15:28;;;;;;;4.25;3.80;;;22.60;71.20;;;;;;4962307;28;20030;-57
2023/09/07 00:17:53;;;;;;;4.22;3.83;;;22.60;71.20;;;;;;4975746;28;20026;-57
2023/09/07 00:20:21;;;;;;;4.40;3.85;;;22.50;71.10;;;;;;4975744;28;20029;-59
2023/09/07 00:22:47;;;;;;;4.93;3.95;;;22.50;71.10;;;;;;4973691;28;20050;-56
2023/09/07 00:25:13;;;;;;;6.40;3.60;;;22.50;71.10;;;;;;4983420;28;20054;-57
2023/09/07 00:27:39;;;;;;;4.57;3.53;;;22.60;71.10;;;;;;4984238;28;20089;-59
2023/09/07 00:30:05;;;;;;;3.70;3.30;;;22.50;71.10;;;;;;4979705;28;20042;-55
2023/09/07 00:32:32;;;;;;;3.58;3.28;;;22.60;71.10;;;;;;4987911;28;20554;-56
2023/09/07 00:34:58;;;;;;;4.68;3.53;;;22.50;71.10;;;;;;4982153;28;21369;-57
2023/09/07 00:37:23;;;;;;;5.45;3.65;;;22.50;71.10;;;;;;4981887;28;20349;-59
2023/09/07 00:39:49;;;;;;;3.92;3.53;;;22.60;71.10;;;;;;4975433;28;20191;-57
2023/09/07 00:42:16;;;;;;;4.05;3.65;;;22.50;71.00;;;;;;4962596;28;20057;-58
2023/09/07 00:44:41;;;;;;;4.20;3.80;;;22.60;71.10;;;;;;4974576;28;20058;-58
2023/09/07 00:47:07;;;;;;;4.85;3.30;;;22.50;71.10;;;;;;4948198;28;20136;-56
2023/09/07 00:49:32;;;;;;;5.13;3.75;;;22.60;71.10;;;;;;4975211;28;20060;-59
2023/09/07 00:51:58;;;;;;;4.78;3.30;;;22.50;71.00;;;;;;4972518;28;20031;-59
2023/09/07 00:54:24;;;;;;;5.82;3.75;;;22.50;71.00;;;;;;4980751;28;20045;-58
2023/09/07 00:56:49;;;;;;;4.68;3.67;;;22.50;71.00;;;;;;4981415;28;20045;-56
2023/09/07 00:59:15;;;;;;;3.95;3.30;;;22.50;71.00;;;;;;4978522;28;20038;-57
2023/09/07 01:01:42;;;;;;;4.55;3.63;;;22.50;71.00;;;;;;4976509;28;20057;-59
2023/09/07 01:07:40;;;;;;;4.10;3.33;;;22.60;71.00;;;;;;4972328;28;20169;-59
2023/09/07 01:10:06;;;;;;;;;;;22.50;71.00;;;;;;4978018;28;20571;-58
2023/09/07 01:12:31;;;;;;;4.10;3.45;;;22.50;71.00;;;;;;4974110;28;19949;-57
2023/09/07 01:14:58;;;;;;;4.07;3.67;;;22.50;71.00;;;;;;4975387;28;20451;-60
2023/09/07 01:17:24;;;;;;;3.70;3.40;;;22.50;71.00;;;;;;4973359;28;20126;-59
2023/09/07 01:19:50;;;;;;;5.03;3.72;;;22.50;71.00;;;;;;4974392;28;20043;-54
2023/09/07 01:22:18;;;;;;;4.43;3.67;;;22.50;71.00;;;;;;4978082;28;20037;-59
2023/09/07 01:24:45;;;;;;;3.70;3.40;;;22.50;71.00;;;;;;4981112;28;20042;-57
2023/09/07 01:27:13;;;;;;;3.75;3.45;;;22.50;71.00;;;;;;4981591;28;20030;-57
2023/09/07 01:29:38;;;;;;;3.70;3.20;;;22.50;71.00;;;;;;4977053;28;20397;-56
2023/09/07 01:32:05;;;;;;;4.13;3.60;;;22.50;71.00;;;;;;4976538;28;20096;-56
2023/09/07 01:34:30;;;;;;;4.47;3.00;;;22.50;71.00;;;;;;4979823;28;20518;-59
2023/09/07 01:36:56;;;;;;;3.55;3.13;;;22.50;71.00;;;;;;4979539;28;20030;-58
2023/09/07 01:39:22;;;;;;;3.53;3.20;;;22.50;70.90;;;;;;4976316;28;20456;-57
2023/09/07 01:41:47;;;;;;;3.85;3.20;;;22.50;71.00;;;;;;4973143;28;20258;-57
2023/09/07 01:44:13;;;;;;;3.65;3.28;;;22.50;71.00;;;;;;4973176;28;20023;-57
2023/09/07 01:46:38;;;;;;;6.40;3.45;;;22.50;71.00;;;;;;4974258;28;20070;-57
2023/09/07 01:49:04;;;;;;;3.33;3.03;;;22.50;71.20;;;;;;4972831;28;20504;-57
2023/09/07 01:51:29;;;;;;;4.20;3.55;;;22.50;71.00;;;;;;4973138;28;20045;-57
2023/09/07 01:53:55;;;;;;;3.72;3.33;;;22.50;71.00;;;;;;4978602;28;20046;-58
2023/09/07 01:56:21;;;;;;;5.35;3.22;;;22.50;70.90;;;;;;4979260;28;20045;-54
2023/09/07 01:58:46;;;;;;;4.53;3.80;;;22.50;70.90;;;;;;4979322;28;20051;-58
2023/09/07 02:01:23;;;;;;;4.70;3.70;;;22.50;70.90;;;;;;4979746;28;20041;-59
2023/09/07 02:03:48;;;;;;;3.63;3.00;;;22.50;70.90;;;;;;4967511;28;20118;-59
2023/09/07 02:06:14;;;;;;;3.42;3.03;;;22.50;71.00;;;;;;4974434;28;20121;-55
2023/09/07 02:08:40;;;;;;;4.13;3.33;;;22.50;70.90;;;;;;4974174;28;20037;-56
2023/09/07 02:11:06;;;;;;;3.60;3.13;;;22.50;70.90;;;;;;4973674;28;20504;-59
2023/09/07 02:13:31;;;;;;;3.30;3.00;;;22.50;70.90;;;;;;4972935;28;20031;-59
2023/09/07 02:15:57;;;;;;;4.65;2.80;;;22.40;70.90;;;;;;4974292;28;20027;-60
2023/09/07 02:18:22;;;;;;;3.42;3.10;;;22.50;70.90;;;;;;4973554;28;20451;-57
2023/09/07 02:20:48;;;;;;;3.42;3.08;;;22.50;70.90;;;;;;4979176;28;20045;-59
2023/09/07 02:23:14;;;;;;;3.55;3.13;;;22.40;70.90;;;;;;4979502;28;20034;-56
2023/09/07 02:25:41;;;;;;;3.38;2.97;;;22.50;70.90;;;;;;4981940;28;20037;-59
2023/09/07 02:28:06;;;;;;;3.50;3.20;;;22.40;70.90;;;;;;4978302;28;20031;-57
2023/09/07 02:30:32;;;;;;;3.58;3.10;;;22.50;70.90;;;;;;4983042;28;20026;-60
2023/09/07 02:32:58;;;;;;;3.75;3.42;;;22.50;70.90;;;;;;4981385;28;20054;-58
2023/09/07 02:35:23;;;;;;;3.38;2.88;;;22.40;70.90;;;;;;4978289;28;20042;-58
2023/09/07 02:37:49;;;;;;;3.47;3.17;;;22.50;70.90;;;;;;4979548;28;20049;-59
2023/09/07 02:40:15;;;;;;;4.00;3.60;;;22.50;70.90;;;;;;4975907;28;20038;-59
2023/09/07 02:42:42;;;;;;;3.75;3.40;;;22.40;70.90;;;;;;4974783;28;20173;-57
2023/09/07 02:45:10;;;;;;;3.45;3.15;;;22.40;70.80;;;;;;4975793;28;20109;-59
2023/09/07 02:47:36;;;;;;;3.15;2.85;;;22.40;70.80;;;;;;4975299;28;20477;-59
2023/09/07 02:50:01;;;;;;;3.47;3.10;;;22.40;70.90;;;;;;4973452;28;20078;-58
2023/09/07 02:52:27;;;;;;;3.55;3.25;;;22.40;70.90;;;;;;4964946;28;20124;-55
2023/09/07 02:54:52;;;;;;;3.60;3.30;;;22.40;70.80;;;;;;4978592;28;20038;-59
2023/09/07 02:57:18;;;;;;;3.30;3.00;;;22.40;70.90;;;;;;4983308;28;20031;-57
2023/09/07 02:59:44;;;;;;;4.00;3.70;;;22.40;70.80;;;;;;4978495;28;20034;-59
2023/09/07 03:02:09;;;;;;;3.50;3.20;;;22.40;70.80;;;;;;4978480;28;20400;-58
2023/09/07 03:04:35;;;;;;;3.67;3.33;;;22.40;70.80;;;;;;4977031;28;20119;-60
2023/09/07 03:07:02;;;;;;;3.60;3.30;;;22.40;70.80;;;;;;4974530;28;20049;-57
2023/09/07 03:09:27;;;;;;;3.45;3.13;;;22.40;70.80;;;;;;4973299;28;20030;-57
2023/09/07 03:11:53;;;;;;;3.25;2.95;;;22.40;70.80;;;;;;4975661;28;20085;-59
2023/09/07 03:14:18;;;;;;;3.67;3.38;;;22.40;70.80;;;;;;4977054;28;20459;-58
2023/09/07 03:16:44;;;;;;;3.42;3.13;;;22.40;70.80;;;;;;4975557;28;20583;-60
2023/09/07 03:19:09;;;;;;;3.80;2.83;;;22.40;70.80;;;;;;4984206;28;20038;-58
2023/09/07 03:21:35;;;;;;;4.43;2.92;;;22.40;70.80;;;;;;4983420;28;20035;-58
2023/09/07 03:24:01;;;;;;;3.40;3.10;;;22.40;70.80;;;;;;4978135;28;20039;-55
2023/09/07 03:26:26;;;;;;;3.15;2.85;;;22.40;70.80;;;;;;4978903;28;20027;-54
2023/09/07 03:28:52;;;;;;;3.05;2.75;;;22.40;70.80;;;;;;4981979;28;20062;-55
2023/09/07 03:31:17;;;;;;;3.15;2.85;;;22.40;70.80;;;;;;4976246;28;20022;-58
2023/09/07 03:33:43;;;;;;;3.88;3.33;;;22.40;70.80;;;;;;4975929;28;20035;-57
2023/09/07 03:36:10;;;;;;;3.15;2.85;;;22.40;70.80;;;;;;4978096;28;20090;-59
2023/09/07 03:38:35;;;;;;;3.47;3.05;;;22.40;70.90;;;;;;4974820;28;20049;-57
2023/09/07 03:41:01;;;;;;;3.03;2.72;;;22.40;70.90;;;;;;4974329;28;20035;-59
2023/09/07 03:43:27;;;;;;;3.65;2.80;;;22.40;70.90;;;;;;4975776;28;20030;-56
2023/09/07 03:45:52;;;;;;;3.33;3.03;;;22.40;70.90;;;;;;4977738;28;20041;-58
2023/09/07 03:48:19;;;;;;;3.53;3.22;;;22.40;70.90;;;;;;4976798;28;20038;-56
2023/09/07 03:50:44;;;;;;;3.20;2.90;;;22.40;70.90;;;;;;4981100;28;20614;-54
2023/09/07 03:53:10;;;;;;;4.20;3.13;;;22.40;70.80;;;;;;4981768;28;20057;-56
2023/09/07 03:55:45;;;;;;;4.03;3.13;;;22.40;70.80;;;;;;4979228;28;20038;-59
2023/09/07 03:58:11;;;;;;;3.40;3.10;;;22.40;70.80;;;;;;4978266;28;20022;-57
2023/09/07 04:00:44;;;;;;;4.43;3.13;;;22.40;70.80;;;;;;4978329;28;20038;-57
2023/09/07 04:03:10;;;;;;;4.57;3.63;;;22.40;70.80;;;;;;4974325;28;20041;-59
2023/09/07 04:05:38;;;;;;;3.17;2.88;;;22.30;70.70;;;;;;4974710;28;20034;-57
2023/09/07 04:08:05;;;;;;;3.67;2.92;;;22.30;70.70;;;;;;4971698;28;20117;-57
2023/09/07 04:10:30;;;;;;;3.13;2.80;;;22.40;70.80;;;;;;4974298;28;20049;-60
2023/09/07 04:12:56;;;;;;;2.90;2.63;;;22.40;70.70;;;;;;4971215;28;20034;-57
2023/09/07 04:15:21;;;;;;;3.42;3.13;;;22.30;70.80;;;;;;4973970;28;20034;-56
2023/09/07 04:17:47;;;;;;;3.45;3.10;;;22.30;70.70;;;;;;4976892;28;20517;-58
2023/09/07 04:20:12;;;;;;;2.85;2.65;;;22.40;70.80;;;;;;4967459;28;20230;-59
2023/09/07 04:22:41;;;;;;;3.70;2.70;;;22.30;70.80;;;;;;4985177;28;20030;-55
2023/09/07 04:25:07;;;;;;;3.83;3.10;;;22.30;70.70;;;;;;4977667;28;20640;-58
2023/09/07 04:27:32;;;;;;;2.92;2.70;;;22.30;70.70;;;;;;4978343;28;20037;-59
2023/09/07 04:29:58;;;;;;;3.45;2.85;;;22.30;70.70;;;;;;4976483;28;20101;-58
2023/09/07 04:32:23;;;;;;;3.30;3.00;;;22.30;70.70;;;;;;4974988;28;20058;-57
2023/09/07 04:34:55;;;;;;;3.17;2.92;;;22.30;71.30;;;;;;4974127;28;20035;-57
2023/09/07 04:37:21;;;;;;;3.60;3.30;;;22.30;70.70;;;;;;4975424;28;20688;-57
2023/09/07 04:39:55;;;;;;;3.15;2.78;;;22.30;70.70;;;;;;4975509;28;20038;-57
2023/09/07 04:42:20;;;;;;;4.20;3.08;;;22.30;70.70;;;;;;4973530;28;20023;-55
2023/09/07 04:44:47;;;;;;;2.90;2.60;;;22.30;70.70;;;;;;4979558;28;20463;-57
2023/09/07 04:47:13;;;;;;;3.50;3.20;;;22.30;70.80;;;;;;4977335;28;20509;-58
2023/09/07 04:49:39;;;;;;;3.42;3.13;;;22.30;71.40;;;;;;4981643;28;20062;-59
2023/09/07 04:52:05;;;;;;;3.10;2.80;;;22.30;70.70;;;;;;4976183;28;20105;-58
2023/09/07 04:54:30;;;;;;;3.10;2.80;;;22.30;70.70;;;;;;4963113;28;20034;-57
2023/09/07 04:56:56;;;;;;;3.38;3.08;;;22.30;70.70;;;;;;4976885;28;20041;-57
2023/09/07 04:59:21;;;;;;;3.10;2.78;;;22.30;70.70;;;;;;4975788;28;20038;-58
2023/09/07 05:01:47;;;;;;;2.78;2.58;;;22.30;70.60;;;;;;4972875;28;20038;-57
2023/09/07 05:04:12;;;;;;;3.55;3.25;;;22.30;70.60;;;;;;4973061;28;20058;-58
2023/09/07 05:06:40;;;;;;;5.28;2.90;;;22.30;70.60;;;;;;4972471;28;20031;-58
2023/09/07 05:09:05;;;;;;;3.72;3.03;;;22.30;70.60;;;;;;4973539;28;20454;-59
2023/09/07 05:11:34;;;;;;;3.60;3.30;;;22.30;70.50;;;;;;4979732;28;20104;-55
2023/09/07 05:14:00;;;;;;;3.50;3.20;;;22.30;70.20;;;;;;4977227;28;20038;-55
2023/09/07 05:16:26;;;;;;;3.85;3.45;;;22.30;70.20;;;;;;4984839;28;20030;-57
2023/09/07 05:18:51;;;;;;;4.13;3.42;;;22.30;70.30;;;;;;4977578;28;20184;-58
2023/09/07 05:21:17;;;;;;;4.60;3.53;;;22.30;70.40;;;;;;4977420;28;20026;-58
2023/09/07 05:23:43;;;;;;;5.70;3.67;;;22.30;70.20;;;;;;4977889;28;20042;-59
2023/09/07 05:26:09;;;;;;;4.57;3.20;;;22.30;70.10;;;;;;4976191;28;20031;-57
2023/09/07 05:28:34;;;;;;;3.75;3.45;;;22.30;70.10;;;;;;4974291;28;20412;-59
2023/09/07 05:31:00;;;;;;;5.90;4.18;;;22.30;70.00;;;;;;4972039;28;20034;-57
2023/09/07 05:33:25;;;;;;;4.55;3.60;;;22.30;70.00;;;;;;4974842;28;20369;-56
2023/09/07 05:35:51;;;;;;;4.13;3.70;;;22.30;69.80;;;;;;4974159;28;20043;-59
2023/09/07 05:38:16;;;;;;;5.40;3.90;;;22.30;69.80;;;;;;4976328;28;20049;-57
2023/09/07 05:40:44;;;;;;;5.15;3.95;;;22.30;69.90;;;;;;4973444;28;20046;-58
2023/09/07 05:43:10;;;;;;;5.78;4.00;;;22.30;69.80;;;;;;4978679;28;20034;-59
2023/09/07 05:45:39;;;;;;;3.83;3.45;;;22.30;69.70;;;;;;4979807;28;20697;-59
2023/09/07 05:48:05;;;;;;;5.70;3.92;;;22.30;69.60;;;;;;4977736;28;20129;-59
2023/09/07 05:50:34;;;;;;;5.60;4.00;;;22.30;69.60;;;;;;4962560;28;20820;-55
2023/09/07 05:52:59;;;;;;;4.88;4.28;;;22.30;69.50;;;;;;4976718;28;20034;-57
2023/09/07 05:55:25;;;;;;;5.43;4.13;;;22.30;69.50;;;;;;4966046;28;20033;-57
2023/09/07 05:57:50;;;;;;;5.25;4.15;;;22.30;69.40;;;;;;4979725;28;20019;-58
2023/09/07 06:00:17;;;;;;;5.45;3.83;;;22.30;69.40;;;;;;4977415;28;21493;-56
2023/09/07 06:02:43;;;;;;;6.30;4.43;;;22.30;69.40;;;;;;4978277;28;20034;-56
2023/09/07 06:05:09;;;;;;;4.65;4.07;;;22.30;69.30;;;;;;4979318;28;20110;-57
2023/09/07 06:07:35;;;;;;;5.22;4.40;;;22.40;69.40;;;;;;4976400;28;20117;-54
2023/09/07 06:10:01;;;;;;;5.22;4.25;;;22.30;69.30;;;;;;4980013;28;20518;-58
2023/09/07 06:12:27;;;;;;;4.85;3.80;;;22.30;69.30;;;;;;4981663;28;20045;-58
2023/09/07 06:14:52;;;;;;;4.47;3.95;;;22.30;69.30;;;;;;4981950;28;20033;-55
2023/09/07 06:17:18;;;;;;;4.57;4.18;;;22.30;69.20;;;;;;4978211;28;20392;-57
2023/09/07 06:19:45;;;;;;;4.90;3.92;;;22.30;69.20;;;;;;4980736;28;20038;-56
2023/09/07 06:22:10;;;;;;;5.68;3.80;;;22.30;69.30;;;;;;4979617;28;20113;-56
2023/09/07 06:24:36;;;;;;;3.80;3.50;;;22.30;69.30;;;;;;4978266;28;21277;-57
2023/09/07 06:27:01;;;;;;;4.38;3.97;;;22.30;69.40;;;;;;4981084;28;20030;-57
2023/09/07 06:29:27;;;;;;;5.28;4.50;;;22.30;69.40;;;;;;4977200;28;20045;-58
2023/09/07 06:31:52;;;;;;;6.63;4.22;;;22.30;69.40;;;;;;4978486;28;20027;-58
2023/09/07 06:34:18;;;;;;;6.25;4.55;;;22.30;69.40;;;;;;4962390;28;20080;-56
2023/09/07 06:36:43;;;;;;;4.78;4.28;;;22.30;69.40;;;;;;4977823;28;20038;-59
2023/09/07 06:39:09;;;;;;;4.57;4.18;;;22.30;69.40;;;;;;4980883;28;20141;-58
2023/09/07 06:41:34;;;;;;;5.00;4.43;;;22.30;69.40;;;;;;4983534;28;20477;-59
2023/09/07 06:44:00;;;;;;;5.05;4.55;;;22.30;69.30;;;;;;4965203;28;20092;-57
2023/09/07 06:46:26;;;;;;;5.00;4.10;;;22.30;69.30;;;;;;4980103;28;20046;-55
2023/09/07 06:48:52;;;;;;;4.85;4.15;;;22.30;69.30;;;;;;4981119;28;20117;-57
2023/09/07 06:51:17;;;;;;;5.15;4.65;;;22.30;69.40;;;;;;4981157;28;20069;-59
2023/09/07 06:53:43;;;;;;;8.30;5.10;;;22.30;69.50;;;;;;4979503;28;20089;-58
2023/09/07 06:56:08;;;;;;;4.22;3.83;;;22.30;69.30;;;;;;4977755;28;20031;-55
2023/09/07 06:58:34;;;;;;;4.68;4.18;;;22.30;69.30;;;;;;4980146;28;20084;-58
2023/09/07 07:01:00;;;;;;;5.85;4.53;;;22.30;69.90;;;;;;4980250;28;20080;-58
2023/09/07 07:03:30;;;;;;;4.53;4.05;;;22.30;69.30;;;;;;4975412;28;20118;-58
2023/09/07 07:05:56;;;;;;;4.95;3.70;;;22.30;69.60;;;;;;4976835;28;20097;-59
2023/09/07 07:08:22;;;;;;;4.57;4.18;;;22.30;69.90;;;;;;4975072;28;20039;-58
2023/09/07 07:10:48;;;;;;;7.47;5.05;;;22.30;69.90;;;;;;4981478;28;20502;-58
2023/09/07 07:13:14;;;;;;;6.63;4.85;;;22.20;69.50;;;;;;4960571;28;20177;-59
2023/09/07 07:15:39;;;;;;;5.65;5.15;;;22.20;67.80;;;;;;4980307;28;20065;-57
2023/09/07 07:18:08;;;;;;;7.80;5.05;;;22.10;68.80;;;;;;4978169;28;20547;-56
2023/09/07 07:20:35;;;;;;;5.72;5.00;;;22.10;67.40;;;;;;4977045;28;20029;-56
2023/09/07 07:23:00;;;;;;;7.22;4.95;;;22.10;67.70;;;;;;4977590;28;20035;-58
2023/09/07 07:25:26;;;;;;;7.55;5.03;;;22.00;65.80;;;;;;4961722;28;20027;-58
2023/09/07 07:27:51;;;;;;;5.85;5.25;;;22.00;66.20;;;;;;4974838;28;20129;-55
2023/09/07 07:30:17;;;;;;;6.05;5.20;;;22.00;67.10;;;;;;4975241;28;20034;-56
2023/09/07 07:32:43;;;;;;;6.60;5.15;;;22.00;67.30;;;;;;4978949;28;20129;-56
2023/09/07 07:35:08;;;;;;;6.60;5.28;;;22.00;66.40;;;;;;4978157;28;20069;-56
2023/09/07 07:37:34;;;;;;;6.35;4.97;;;22.00;67.50;;;;;;4976487;28;20140;-57
2023/09/07 07:39:59;;;;;;;7.22;5.65;;;22.00;67.80;;;;;;4979801;28;20480;-58
2023/09/07 07:42:25;;;;;;;6.43;5.78;;;22.00;67.80;;;;;;4980790;28;20026;-57
2023/09/07 07:44:50;;;;;;;5.25;4.75;;;22.00;68.50;;;;;;4978515;28;20554;-56
2023/09/07 07:47:16;;;;;;;6.85;5.60;;;22.00;68.60;;;;;;4978843;28;20038;-54
2023/09/07 07:49:42;;;;;;;5.88;5.20;;;22.00;67.30;;;;;;4959935;28;20034;-59
2023/09/07 07:52:07;;;;;;;6.90;5.53;;;22.00;68.40;;;;;;4985856;28;20388;-57
2023/09/07 07:54:33;;;;;;;7.53;5.28;;;21.90;67.10;;;;;;4981032;28;20034;-57
2023/09/07 07:56:59;;;;;;;6.70;5.68;;;21.90;68.60;;;;;;4979951;28;20586;-58
2023/09/07 07:59:25;;;;;;;6.43;4.93;;;22.00;68.70;;;;;;4975214;28;20030;-56
2023/09/07 08:01:50;;;;;;;6.88;5.07;;;22.00;68.90;;;;;;4979925;28;20053;-57
2023/09/07 08:04:16;;;;;;;5.85;5.35;;;22.00;68.30;;;;;;4976234;28;20023;-54
2023/09/07 08:06:41;;;;;;;6.65;5.70;;;21.90;69.50;;;;;;4979292;28;20038;-58
2023/09/07 08:09:08;;;;;;;6.10;5.30;;;22.00;67.70;;;;;;4979871;28;20030;-54
2023/09/07 08:11:33;;;;;;;5.95;5.30;;;21.90;69.10;;;;;;4982017;28;20038;-57
2023/09/07 08:13:59;;;;;;;5.32;4.82;;;21.90;69.30;;;;;;4980168;28;20524;-57
2023/09/07 08:16:25;;;;;;;6.10;5.10;;;21.90;68.00;;;;;;4977689;28;20052;-54
2023/09/07 08:18:50;;;;;;;5.20;4.70;;;21.90;68.10;;;;;;4977906;28;20026;-58
2023/09/07 08:21:16;;;;;;;5.95;5.05;;;21.90;68.60;;;;;;4978793;28;20042;-57
2023/09/07 08:23:41;;;;;;;6.10;5.45;;;21.90;68.80;;;;;;4979682;28;20030;-59
2023/09/07 08:26:09;;;;;;;6.85;5.00;;;21.90;68.40;;;;;;4977222;28;20173;-58
2023/09/07 08:28:34;;;;;;;5.60;4.78;;;21.90;68.50;;;;;;4976154;28;20038;-57
2023/09/07 08:31:00;;;;;;;5.40;4.90;;;21.90;68.00;;;;;;4978334;28;20399;-59
2023/09/07 08:33:29;;;;;;;7.35;5.40;;;21.90;68.50;;;;;;4976681;28;20057;-58
2023/09/07 08:35:56;;;;;;;5.25;4.75;;;22.00;68.40;;;;;;4979600;28;20137;-59
2023/09/07 08:38:25;;;;;;;5.38;4.85;;;21.90;68.30;;;;;;4980404;28;20409;-57
2023/09/07 08:40:53;;;;;;;5.53;5.03;;;22.00;68.00;;;;;;4978653;28;20121;-58
2023/09/07 08:43:20;;;;;;;6.00;5.30;;;21.90;68.60;;;;;;4977945;28;20056;-58
2023/09/07 08:45:52;;;;;;;5.97;4.82;;;21.90;68.50;;;;;;4977854;28;20049;-56
2023/09/07 08:48:19;;;;;;;7.90;5.07;;;21.90;68.10;;;;;;4977665;28;20728;-58
2023/09/07 08:50:50;;;;;;;6.85;4.93;;;21.90;67.80;;;;;;4975255;28;20174;-59
2023/09/07 08:53:22;;;;;;;6.80;5.18;;;22.00;67.40;;;;;;4974220;28;20539;-57
2023/09/07 08:55:48;;;;;;;5.35;4.82;;;22.00;67.60;;;;;;4973403;28;20777;-57
2023/09/07 08:58:14;;;;;;;6.38;5.10;;;22.00;67.40;;;;;;4979866;28;20035;-56
2023/09/07 09:00:43;;;;;;;6.68;4.80;;;22.00;67.60;;;;;;4960608;28;20034;-58
2023/09/07 09:03:10;;;;;;;6.45;5.30;;;22.00;67.60;;;;;;4977983;28;20034;-58
2023/09/07 09:05:38;;;;;;;6.18;4.75;;;22.00;67.70;;;;;;4976608;28;20072;-57
2023/09/07 09:08:05;;;;;;;6.35;5.07;;;22.00;67.50;;;;;;4977620;28;20029;-57
2023/09/07 09:10:31;;;;;;;6.88;4.45;;;22.00;67.70;;;;;;4979931;28;20821;-59
2023/09/07 09:12:59;;;;;;;5.38;4.88;;;22.00;67.60;;;;;;4976592;28;20080;-59
2023/09/07 09:15:25;;;;;;;5.50;4.53;;;22.00;67.60;;;;;;4979442;28;20062;-59
2023/09/07 09:17:51;;;;;;;5.47;4.57;;;22.00;67.70;;;;;;4976104;28;20035;-58
2023/09/07 09:20:25;;;;;;;5.00;4.50;;;22.00;67.70;;;;;;4980527;28;20030;-56
2023/09/07 09:22:54;;;;;;;5.80;4.60;;;22.00;67.70;;;;;;4968592;28;20105;-59
2023/09/07 09:25:21;;;;;;;5.93;4.53;;;22.00;67.80;;;;;;4982182;28;20488;-60
2023/09/07 09:27:47;;;;;;;4.70;4.30;;;22.00;67.80;;;;;;4977979;28;20496;-55
2023/09/07 09:30:15;;;;;;;5.15;4.40;;;22.00;68.00;;;;;;4978022;28;20026;-60
2023/09/07 09:32:42;;;;;;;7.45;5.07;;;22.10;67.80;;;;;;4976815;28;20110;-59
2023/09/07 09:35:09;;;;;;;6.50;5.32;;;22.10;68.00;;;;;;4942109;28;20031;-55
2023/09/07 09:37:46;;;;;;;5.32;4.63;;;22.00;67.60;;;;;;4956353;28;20054;-58
2023/09/07 09:40:13;;;;;;;4.82;4.15;;;22.10;68.00;;;;;;4974818;28;20042;-59
2023/09/07 09:42:42;;;;;;;5.53;4.95;;;22.10;67.50;;;;;;4979312;28;20631;-57
2023/09/07 09:45:08;;;;;;;5.13;4.38;;;22.10;67.70;;;;;;4981085;28;20034;-61
2023/09/07 09:47:38;;;;;;;4.50;4.10;;;22.10;67.90;;;;;;4978256;28;20647;-62
2023/09/07 09:50:07;;;;;;;5.18;4.50;;;22.00;67.70;;;;;;4976265;28;20033;-54
2023/09/07 09:52:34;;;;;;;4.63;4.15;;;22.10;68.00;;;;;;4981832;28;20687;-55
2023/09/07 09:55:01;;;;;;;5.35;4.85;;;22.10;67.60;;;;;;4975250;28;20077;-58
2023/09/07 09:57:28;;;;;;;5.13;4.50;;;22.00;67.80;;;;;;4979266;28;20058;-55
2023/09/07 09:59:55;;;;;;;3.95;3.65;;;22.10;67.90;;;;;;4975880;28;20033;-57
2023/09/07 10:02:21;;;;;;;6.07;4.30;;;22.10;68.10;;;;;;4978184;28;20109;-58
2023/09/07 10:04:47;;;;;;;5.80;4.88;;;22.00;67.30;;;;;;4977655;28;20022;-56
2023/09/07 10:07:13;;;;;;;4.38;3.67;;;22.10;67.60;;;;;;4977388;28;20066;-58
2023/09/07 10:09:38;;;;;;;3.95;3.63;;;22.10;66.90;;;;;;4975170;28;20057;-60
2023/09/07 10:12:08;;;;;;;4.90;4.40;;;22.10;66.00;;;;;;4976557;28;20035;-60
2023/09/07 10:14:41;;;;;;;3.88;3.47;;;22.10;66.20;;;;;;4962928;28;20043;-63
2023/09/07 10:17:09;;;;;;;5.78;4.68;;;22.10;65.90;;;;;;4979063;28;20034;-57
2023/09/07 10:19:37;;;;;;;4.55;3.90;;;22.10;66.20;;;;;;4978530;28;20038;-56
2023/09/07 10:22:03;;;;;;;4.88;4.47;;;22.10;66.40;;;;;;4977977;28;20034;-55
2023/09/07 10:24:35;;;;;;;5.50;4.28;;;22.10;66.50;;;;;;4979141;28;20088;-56
2023/09/07 10:27:04;;;;;;;6.57;4.35;;;22.10;65.70;;;;;;4975367;28;20042;-58
2023/09/07 10:29:44;;;;;;;4.90;4.40;;;22.10;65.70;;;;;;4975430;28;20042;-59
2023/09/07 10:32:12;;;;;;;4.80;4.03;;;22.10;65.90;;;;;;4976098;28;20023;-56
2023/09/07 10:34:43;;;;;;;4.25;3.85;;;22.10;65.60;;;;;;4981501;28;20038;-56
2023/09/07 10:37:12;;;;;;;5.25;4.03;;;22.10;65.30;;;;;;4974647;28;20035;-59
2023/09/07 10:39:39;;;;;;;4.38;3.78;;;22.10;65.20;;;;;;4984203;28;20034;-56
2023/09/07 10:42:05;;;;;;;4.70;3.85;;;22.10;65.60;;;;;;4985182;28;20037;-56
2023/09/07 10:44:30;;;;;;;4.10;3.70;;;22.10;65.10;;;;;;4981621;28;20034;-60
2023/09/07 10:47:00;;;;;;;5.55;4.43;;;22.10;65.00;;;;;;4978775;28;20042;-56
2023/09/07 10:49:25;;;;;;;6.28;4.18;;;22.10;64.80;;;;;;4983634;28;20065;-60
2023/09/07 10:51:51;;;;;;;4.68;3.88;;;22.20;64.30;;;;;;4983699;28;20519;-57
2023/09/07 10:54:18;;;;;;;4.78;4.35;;;22.10;64.00;;;;;;5001263;23;20046;-58
2023/09/07 10:56:45;;;;;;;4.50;4.03;;;22.10;64.60;;;;;;4998538;28;21679;-55
2023/09/07 10:59:14;;;;;;;5.43;4.18;;;22.10;64.50;;;;;;4998771;28;20590;-59
2023/09/07 11:01:41;;;;;;;4.07;3.45;;;22.10;65.40;;;;;;4999473;28;20042;-58
2023/09/07 11:04:08;;;;;;;4.28;3.85;;;22.10;64.70;;;;;;5002227;28;20556;-56
2023/09/07 11:06:34;;;;;;;3.70;3.33;;;22.10;64.70;;;;;;4979339;28;20036;-59
2023/09/07 11:09:04;;;;;;;4.65;4.15;;;22.10;64.80;;;;;;5000798;28;20566;-59
2023/09/07 11:11:34;;;;;;;4.47;3.75;;;22.10;63.90;;;;;;5001139;28;20755;-59
2023/09/07 11:14:01;;;;;;;4.25;3.80;;;22.10;64.70;;;;;;5000387;28;20034;-57
2023/09/07 11:16:27;;;;;;;4.90;4.05;;;22.10;65.10;;;;;;5007336;28;20131;-57
2023/09/07 11:18:54;;;;;;;5.40;3.55;;;22.10;65.10;;;;;;5000503;28;20643;-55
2023/09/07 11:21:20;;;;;;;6.90;3.78;;;22.10;64.70;;;;;;5000561;28;20076;-56
2023/09/07 11:23:46;;;;;;;7.45;4.15;;;22.10;65.10;;;;;;4999778;28;20057;-56
2023/09/07 11:26:12;;;;;;;4.95;3.67;;;22.10;64.30;;;;;;4982502;28;20391;-59
2023/09/07 11:28:39;;;;;;;4.70;4.03;;;22.10;64.70;;;;;;5001342;28;20030;-58
2023/09/07 11:31:04;;;;;;;6.10;4.03;;;22.10;64.30;;;;;;4996872;28;20054;-57
2023/09/07 11:33:34;;;;;;;4.50;3.92;;;22.20;64.30;;;;;;5000479;28;20065;-58
2023/09/07 11:35:59;;;;;;;4.20;3.35;;;22.10;64.40;;;;;;4978703;28;20502;-56
2023/09/07 11:38:34;;;;;;;5.82;4.07;;;22.20;64.00;;;;;;5001415;28;20153;-59
2023/09/07 11:41:00;;;;;;;4.72;3.80;;;22.10;64.30;;;;;;4999962;28;20034;-57
2023/09/07 11:43:25;;;;;;;4.32;3.53;;;22.20;64.30;;;;;;5002001;28;20053;-57
2023/09/07 11:45:51;;;;;;;4.75;3.30;;;22.20;64.20;;;;;;5005181;28;20126;-55
2023/09/07 11:48:17;;;;;;;5.00;3.65;;;22.10;64.40;;;;;;5001557;28;20774;-57
2023/09/07 11:50:43;;;;;;;4.10;3.28;;;22.20;65.10;;;;;;5002198;28;20030;-56
2023/09/07 11:53:09;;;;;;;3.97;3.58;;;22.20;64.90;;;;;;4998589;28;20034;-57
2023/09/07 11:55:35;;;;;;;4.80;4.25;;;22.20;64.70;;;;;;5000701;28;20080;-60
2023/09/07 11:58:07;;;;;;;4.55;3.70;;;22.10;64.90;;;;;;4998314;28;20084;-58
2023/09/07 12:00:32;;;;;;;4.00;3.05;;;22.10;65.00;;;;;;5002109;28;20038;-61
2023/09/07 12:02:58;;;;;;;7.05;4.25;;;22.20;65.10;;;;;;5000731;28;20034;-55
2023/09/07 12:05:24;;;;;;;3.95;3.58;;;22.10;65.00;;;;;;5002589;28;20026;-55
2023/09/07 12:07:50;;;;;;;4.00;3.40;;;22.20;65.30;;;;;;5002534;28;20040;-58
2023/09/07 12:10:16;;;;;;;4.65;3.95;;;22.20;65.40;;;;;;5001124;28;20443;-57
2023/09/07 12:12:43;;;;;;;5.60;3.47;;;22.10;65.30;;;;;;4997643;28;20057;-58
2023/09/07 12:15:11;;;;;;;5.10;4.13;;;22.20;65.40;;;;;;5002234;28;20030;-61
2023/09/07 12:17:36;;;;;;;4.68;3.83;;;22.20;65.40;;;;;;5000057;28;20657;-60
2023/09/07 12:20:03;;;;;;;5.13;3.92;;;22.20;65.40;;;;;;5000902;28;20121;-54
2023/09/07 12:22:28;;;;;;;4.82;3.10;;;22.20;65.20;;;;;;5001740;28;20100;-58
2023/09/07 12:24:55;;;;;;;4.45;3.80;;;22.20;65.50;;;;;;5001044;28;20757;-56
2023/09/07 12:27:21;;;;;;;7.32;3.60;;;22.20;65.80;;;;;;4997896;28;20030;-61
2023/09/07 12:29:47;;;;;;;3.40;2.90;;;22.20;65.40;;;;;;5000539;28;20041;-60
2023/09/07 12:32:12;;;;;;;5.15;3.75;;;22.20;65.20;;;;;;5000904;28;20519;-52
2023/09/07 12:34:38;;;;;;;5.30;3.67;;;22.20;65.00;;;;;;4999375;28;20064;-54
2023/09/07 12:37:04;;;;;;;3.40;3.10;;;22.20;65.30;;;;;;4998405;28;20050;-53
2023/09/07 12:39:30;;;;;;;5.70;3.60;;;22.20;64.40;;;;;;5000532;28;20057;-58
2023/09/07 12:41:56;;;;;;;4.78;3.22;;;22.20;64.90;;;;;;5001736;28;20522;-56
2023/09/07 12:44:21;;;;;;;5.88;3.83;;;22.20;64.70;;;;;;5005048;28;20042;-58
2023/09/07 12:46:47;;;;;;;6.90;3.63;;;22.20;64.50;;;;;;5000991;28;20029;-59